sensor_id;sensor_type;location;lat;lon;timestamp;P1;durP1;ratioP1;P2;durP2;ratioP2
9140;SDS011;46330;50.822;7.126;2022-12-29T00:01:55;0.63;;;0.60;;
9140;SDS011;46330;50.822;7.126;2022-12-29T00:04:23;0.50;;;0.50;;
9140;SDS011;46330;50.822;7.126;2022-12-29T00:06:51;0.50;;;0.50;;
9140;SDS011;46330;50.822;7.126;2022-12-29T00:09:21;0.70;;;0.50;;
9140;SDS011;46330;50.822;7.126;2022-12-29T00:11:49;0.60;;;0.60;;
9140;SDS011;46330;50.822;7.126;2022-12-29T00:14:17;0.40;;;0.40;;
9140;SDS011;46330;50.822;7.126;2022-12-29T00:17:02;0.57;;;0.52;;
9140;SDS011;46330;50.822;7.126;2022-12-29T00:19:30;0.65;;;0.65;;
9140;SDS011;46330;50.822;7.126;2022-12-29T00:22:15;1.17;;;0.70;;
9140;SDS011;46330;50.822;7.126;2022-12-29T00:25:03;0.40;;;0.40;;
9140;SDS011;46330;50.822;7.126;2022-12-29T00:27:49;0.70;;;0.50;;
9140;SDS011;46330;50.822;7.126;2022-12-29T00:33:21;0.45;;;0.43;;
9140;SDS011;46330;50.822;7.126;2022-12-29T00:36:11;0.30;;;0.30;;
9140;SDS011;46330;50.822;7.126;2022-12-29T00:38:44;0.82;;;0.40;;
9140;SDS011;46330;50.822;7.126;2022-12-29T00:41:50;0.50;;;0.50;;
9140;SDS011;46330;50.822;7.126;2022-12-29T00:44:35;1.45;;;0.50;;
9140;SDS011;46330;50.822;7.126;2022-12-29T00:47:03;0.52;;;0.40;;
9140;SDS011;46330;50.822;7.126;2022-12-29T00:49:31;1.27;;;1.13;;
9140;SDS011;46330;50.822;7.126;2022-12-29T00:52:00;0.28;;;0.28;;
9140;SDS011;46330;50.822;7.126;2022-12-29T00:54:30;0.40;;;0.40;;
9140;SDS011;46330;50.822;7.126;2022-12-29T00:57:01;0.35;;;0.35;;
9140;SDS011;46330;50.822;7.126;2022-12-29T00:59:30;0.60;;;0.40;;
9140;SDS011;46330;50.822;7.126;2022-12-29T01:01:58;0.57;;;0.47;;
9140;SDS011;46330;50.822;7.126;2022-12-29T01:04:27;0.98;;;0.50;;
9140;SDS011;46330;50.822;7.126;2022-12-29T01:06:55;0.40;;;0.40;;
9140;SDS011;46330;50.822;7.126;2022-12-29T01:09:23;0.50;;;0.50;;
9140;SDS011;46330;50.822;7.126;2022-12-29T01:12:10;1.75;;;0.52;;
9140;SDS011;46330;50.822;7.126;2022-12-29T01:14:40;0.32;;;0.32;;
9140;SDS011;46330;50.822;7.126;2022-12-29T01:17:08;0.60;;;0.40;;
9140;SDS011;46330;50.822;7.126;2022-12-29T01:19:36;0.38;;;0.30;;
9140;SDS011;46330;50.822;7.126;2022-12-29T01:22:03;0.55;;;0.40;;
9140;SDS011;46330;50.822;7.126;2022-12-29T01:24:32;0.68;;;0.30;;
9140;SDS011;46330;50.822;7.126;2022-12-29T01:27:00;0.65;;;0.52;;
9140;SDS011;46330;50.822;7.126;2022-12-29T01:29:30;0.30;;;0.30;;
9140;SDS011;46330;50.822;7.126;2022-12-29T01:31:57;0.45;;;0.25;;
9140;SDS011;46330;50.822;7.126;2022-12-29T01:34:25;0.20;;;0.20;;
9140;SDS011;46330;50.822;7.126;2022-12-29T01:36:54;1.27;;;0.50;;
9140;SDS011;46330;50.822;7.126;2022-12-29T01:39:23;0.43;;;0.30;;
9140;SDS011;46330;50.822;7.126;2022-12-29T01:41:51;0.38;;;0.30;;
9140;SDS011;46330;50.822;7.126;2022-12-29T01:49:44;0.13;;;0.13;;
9140;SDS011;46330;50.822;7.126;2022-12-29T01:52:12;0.60;;;0.60;;
9140;SDS011;46330;50.822;7.126;2022-12-29T01:54:40;0.50;;;0.40;;
9140;SDS011;46330;50.822;7.126;2022-12-29T01:57:11;0.73;;;0.60;;
9140;SDS011;46330;50.822;7.126;2022-12-29T01:59:46;1.33;;;0.60;;
9140;SDS011;46330;50.822;7.126;2022-12-29T02:02:19;0.40;;;0.40;;
9140;SDS011;46330;50.822;7.126;2022-12-29T02:04:46;0.60;;;0.60;;
9140;SDS011;46330;50.822;7.126;2022-12-29T02:07:17;1.85;;;0.57;;
9140;SDS011;46330;50.822;7.126;2022-12-29T02:09:46;0.82;;;0.50;;
9140;SDS011;46330;50.822;7.126;2022-12-29T02:12:15;1.17;;;0.63;;
9140;SDS011;46330;50.822;7.126;2022-12-29T02:14:46;0.73;;;0.60;;
9140;SDS011;46330;50.822;7.126;2022-12-29T02:17:17;0.73;;;0.50;;
9140;SDS011;46330;50.822;7.126;2022-12-29T02:23:00;0.55;;;0.55;;
9140;SDS011;46330;50.822;7.126;2022-12-29T02:25:58;2.58;;;0.75;;
9140;SDS011;46330;50.822;7.126;2022-12-29T02:28:55;1.25;;;0.60;;
9140;SDS011;46330;50.822;7.126;2022-12-29T02:31:41;0.60;;;0.60;;
9140;SDS011;46330;50.822;7.126;2022-12-29T02:34:15;1.30;;;0.70;;
9140;SDS011;46330;50.822;7.126;2022-12-29T02:36:55;0.82;;;0.50;;
9140;SDS011;46330;50.822;7.126;2022-12-29T02:39:32;0.57;;;0.40;;
9140;SDS011;46330;50.822;7.126;2022-12-29T02:42:07;2.13;;;0.50;;
9140;SDS011;46330;50.822;7.126;2022-12-29T02:44:43;1.42;;;0.80;;
9140;SDS011;46330;50.822;7.126;2022-12-29T02:47:23;1.02;;;0.57;;
9140;SDS011;46330;50.822;7.126;2022-12-29T02:50:01;1.55;;;0.60;;
9140;SDS011;46330;50.822;7.126;2022-12-29T02:52:35;1.37;;;0.50;;
9140;SDS011;46330;50.822;7.126;2022-12-29T02:55:07;0.73;;;0.70;;
9140;SDS011;46330;50.822;7.126;2022-12-29T02:57:36;1.08;;;0.50;;
9140;SDS011;46330;50.822;7.126;2022-12-29T03:00:05;0.98;;;0.40;;
9140;SDS011;46330;50.822;7.126;2022-12-29T03:06:03;0.88;;;0.50;;
9140;SDS011;46330;50.822;7.126;2022-12-29T03:08:48;1.05;;;0.60;;
9140;SDS011;46330;50.822;7.126;2022-12-29T03:11:20;0.95;;;0.73;;
9140;SDS011;46330;50.822;7.126;2022-12-29T03:14:14;0.52;;;0.30;;
9140;SDS011;46330;50.822;7.126;2022-12-29T03:17:09;1.02;;;0.57;;
9140;SDS011;46330;50.822;7.126;2022-12-29T03:19:45;1.17;;;0.68;;
9140;SDS011;46330;50.822;7.126;2022-12-29T03:22:21;1.10;;;0.60;;
9140;SDS011;46330;50.822;7.126;2022-12-29T03:25:03;0.80;;;0.47;;
9140;SDS011;46330;50.822;7.126;2022-12-29T03:27:35;0.57;;;0.57;;
9140;SDS011;46330;50.822;7.126;2022-12-29T03:30:07;0.80;;;0.60;;
9140;SDS011;46330;50.822;7.126;2022-12-29T03:32:37;0.43;;;0.43;;
9140;SDS011;46330;50.822;7.126;2022-12-29T03:35:13;0.50;;;0.50;;
9140;SDS011;46330;50.822;7.126;2022-12-29T03:37:47;0.90;;;0.65;;
9140;SDS011;46330;50.822;7.126;2022-12-29T03:40:21;1.50;;;0.60;;
9140;SDS011;46330;50.822;7.126;2022-12-29T03:42:51;2.25;;;0.65;;
9140;SDS011;46330;50.822;7.126;2022-12-29T03:45:21;0.55;;;0.47;;
9140;SDS011;46330;50.822;7.126;2022-12-29T03:47:49;1.27;;;0.90;;
9140;SDS011;46330;50.822;7.126;2022-12-29T03:50:17;0.60;;;0.60;;
9140;SDS011;46330;50.822;7.126;2022-12-29T03:52:47;0.60;;;0.50;;
9140;SDS011;46330;50.822;7.126;2022-12-29T03:55:15;0.60;;;0.60;;
9140;SDS011;46330;50.822;7.126;2022-12-29T03:57:44;1.10;;;0.60;;
9140;SDS011;46330;50.822;7.126;2022-12-29T04:00:18;1.05;;;0.70;;
9140;SDS011;46330;50.822;7.126;2022-12-29T04:02:48;1.67;;;0.75;;
9140;SDS011;46330;50.822;7.126;2022-12-29T04:05:19;1.80;;;0.65;;
9140;SDS011;46330;50.822;7.126;2022-12-29T04:07:51;0.85;;;0.70;;
9140;SDS011;46330;50.822;7.126;2022-12-29T04:10:19;1.33;;;0.57;;
9140;SDS011;46330;50.822;7.126;2022-12-29T04:12:50;0.90;;;0.50;;
9140;SDS011;46330;50.822;7.126;2022-12-29T04:15:18;0.50;;;0.50;;
9140;SDS011;46330;50.822;7.126;2022-12-29T04:17:47;0.80;;;0.68;;
9140;SDS011;46330;50.822;7.126;2022-12-29T04:20:15;0.90;;;0.65;;
9140;SDS011;46330;50.822;7.126;2022-12-29T04:23:06;1.55;;;0.60;;
9140;SDS011;46330;50.822;7.126;2022-12-29T04:25:36;0.68;;;0.50;;
9140;SDS011;46330;50.822;7.126;2022-12-29T04:28:05;0.45;;;0.45;;
9140;SDS011;46330;50.822;7.126;2022-12-29T04:30:46;0.82;;;0.60;;
9140;SDS011;46330;50.822;7.126;2022-12-29T04:33:18;0.57;;;0.57;;
9140;SDS011;46330;50.822;7.126;2022-12-29T04:35:47;0.50;;;0.40;;
9140;SDS011;46330;50.822;7.126;2022-12-29T04:38:17;0.40;;;0.40;;
9140;SDS011;46330;50.822;7.126;2022-12-29T04:40:46;0.40;;;0.40;;
9140;SDS011;46330;50.822;7.126;2022-12-29T04:43:16;1.80;;;0.45;;
9140;SDS011;46330;50.822;7.126;2022-12-29T04:46:04;0.82;;;0.40;;
9140;SDS011;46330;50.822;7.126;2022-12-29T04:49:05;0.40;;;0.40;;
9140;SDS011;46330;50.822;7.126;2022-12-29T04:51:58;1.00;;;0.50;;
9140;SDS011;46330;50.822;7.126;2022-12-29T04:54:28;0.52;;;0.52;;
9140;SDS011;46330;50.822;7.126;2022-12-29T04:57:09;3.00;;;0.75;;
9140;SDS011;46330;50.822;7.126;2022-12-29T04:59:41;0.63;;;0.55;;
9140;SDS011;46330;50.822;7.126;2022-12-29T05:02:09;0.50;;;0.50;;
9140;SDS011;46330;50.822;7.126;2022-12-29T05:04:38;0.60;;;0.40;;
9140;SDS011;46330;50.822;7.126;2022-12-29T05:07:06;0.63;;;0.40;;
9140;SDS011;46330;50.822;7.126;2022-12-29T05:09:35;0.70;;;0.50;;
9140;SDS011;46330;50.822;7.126;2022-12-29T05:12:04;0.75;;;0.55;;
9140;SDS011;46330;50.822;7.126;2022-12-29T05:14:35;0.93;;;0.45;;
9140;SDS011;46330;50.822;7.126;2022-12-29T05:17:04;1.70;;;0.40;;
9140;SDS011;46330;50.822;7.126;2022-12-29T05:19:31;0.35;;;0.35;;
9140;SDS011;46330;50.822;7.126;2022-12-29T05:21:59;1.73;;;0.60;;
9140;SDS011;46330;50.822;7.126;2022-12-29T05:24:28;0.80;;;0.40;;
9140;SDS011;46330;50.822;7.126;2022-12-29T05:26:58;0.35;;;0.32;;
9140;SDS011;46330;50.822;7.126;2022-12-29T05:32:10;0.98;;;0.40;;
9140;SDS011;46330;50.822;7.126;2022-12-29T05:34:38;1.05;;;0.55;;
9140;SDS011;46330;50.822;7.126;2022-12-29T05:37:06;1.23;;;0.20;;
9140;SDS011;46330;50.822;7.126;2022-12-29T05:39:33;1.25;;;0.47;;
9140;SDS011;46330;50.822;7.126;2022-12-29T05:42:05;0.50;;;0.35;;
9140;SDS011;46330;50.822;7.126;2022-12-29T05:44:55;1.38;;;0.40;;
9140;SDS011;46330;50.822;7.126;2022-12-29T05:47:34;0.68;;;0.40;;
9140;SDS011;46330;50.822;7.126;2022-12-29T05:50:05;0.40;;;0.40;;
9140;SDS011;46330;50.822;7.126;2022-12-29T05:52:52;0.68;;;0.50;;
9140;SDS011;46330;50.822;7.126;2022-12-29T05:55:20;0.57;;;0.35;;
9140;SDS011;46330;50.822;7.126;2022-12-29T05:57:51;0.80;;;0.40;;
9140;SDS011;46330;50.822;7.126;2022-12-29T06:00:19;0.60;;;0.40;;
9140;SDS011;46330;50.822;7.126;2022-12-29T06:02:47;0.50;;;0.50;;
9140;SDS011;46330;50.822;7.126;2022-12-29T06:05:16;1.25;;;0.40;;
9140;SDS011;46330;50.822;7.126;2022-12-29T06:07:44;0.98;;;0.50;;
9140;SDS011;46330;50.822;7.126;2022-12-29T06:10:15;0.40;;;0.40;;
9140;SDS011;46330;50.822;7.126;2022-12-29T06:12:48;0.85;;;0.35;;
9140;SDS011;46330;50.822;7.126;2022-12-29T06:15:17;1.02;;;0.65;;
9140;SDS011;46330;50.822;7.126;2022-12-29T06:17:48;0.40;;;0.40;;
9140;SDS011;46330;50.822;7.126;2022-12-29T06:20:16;0.82;;;0.60;;
9140;SDS011;46330;50.822;7.126;2022-12-29T06:22:44;2.13;;;0.65;;
9140;SDS011;46330;50.822;7.126;2022-12-29T06:25:13;1.20;;;0.60;;
9140;SDS011;46330;50.822;7.126;2022-12-29T06:27:42;1.08;;;0.60;;
9140;SDS011;46330;50.822;7.126;2022-12-29T06:30:11;0.98;;;0.65;;
9140;SDS011;46330;50.822;7.126;2022-12-29T06:32:41;0.68;;;0.68;;
9140;SDS011;46330;50.822;7.126;2022-12-29T06:35:11;0.57;;;0.57;;
9140;SDS011;46330;50.822;7.126;2022-12-29T06:37:44;0.68;;;0.55;;
9140;SDS011;46330;50.822;7.126;2022-12-29T06:40:12;0.95;;;0.68;;
9140;SDS011;46330;50.822;7.126;2022-12-29T06:43:09;2.05;;;0.85;;
9140;SDS011;46330;50.822;7.126;2022-12-29T06:45:56;0.60;;;0.60;;
9140;SDS011;46330;50.822;7.126;2022-12-29T06:48:25;2.20;;;0.60;;
9140;SDS011;46330;50.822;7.126;2022-12-29T06:50:53;1.23;;;0.70;;
9140;SDS011;46330;50.822;7.126;2022-12-29T06:53:21;1.13;;;0.70;;
9140;SDS011;46330;50.822;7.126;2022-12-29T06:55:49;0.75;;;0.55;;
9140;SDS011;46330;50.822;7.126;2022-12-29T06:58:17;0.40;;;0.40;;
9140;SDS011;46330;50.822;7.126;2022-12-29T07:00:45;2.75;;;0.50;;
9140;SDS011;46330;50.822;7.126;2022-12-29T07:03:13;0.60;;;0.47;;
9140;SDS011;46330;50.822;7.126;2022-12-29T07:05:42;1.55;;;0.40;;
9140;SDS011;46330;50.822;7.126;2022-12-29T07:08:10;1.05;;;0.25;;
9140;SDS011;46330;50.822;7.126;2022-12-29T07:10:38;1.75;;;0.40;;
9140;SDS011;46330;50.822;7.126;2022-12-29T07:13:05;1.05;;;0.35;;
9140;SDS011;46330;50.822;7.126;2022-12-29T07:15:34;0.40;;;0.30;;
9140;SDS011;46330;50.822;7.126;2022-12-29T07:18:03;2.42;;;0.50;;
9140;SDS011;46330;50.822;7.126;2022-12-29T07:20:32;0.40;;;0.38;;
9140;SDS011;46330;50.822;7.126;2022-12-29T07:23:01;1.08;;;0.25;;
9140;SDS011;46330;50.822;7.126;2022-12-29T07:25:29;0.90;;;0.40;;
9140;SDS011;46330;50.822;7.126;2022-12-29T07:27:57;0.65;;;0.30;;
9140;SDS011;46330;50.822;7.126;2022-12-29T07:30:25;0.35;;;0.20;;
9140;SDS011;46330;50.822;7.126;2022-12-29T07:32:53;0.47;;;0.13;;
9140;SDS011;46330;50.822;7.126;2022-12-29T07:35:21;0.47;;;0.40;;
9140;SDS011;46330;50.822;7.126;2022-12-29T07:37:49;1.20;;;0.38;;
9140;SDS011;46330;50.822;7.126;2022-12-29T07:40:18;1.35;;;0.47;;
9140;SDS011;46330;50.822;7.126;2022-12-29T07:42:46;0.63;;;0.20;;
9140;SDS011;46330;50.822;7.126;2022-12-29T07:45:15;3.03;;;0.60;;
9140;SDS011;46330;50.822;7.126;2022-12-29T07:47:47;1.35;;;0.68;;
9140;SDS011;46330;50.822;7.126;2022-12-29T07:50:15;5.55;;;2.60;;
9140;SDS011;46330;50.822;7.126;2022-12-29T07:52:43;1.08;;;0.70;;
9140;SDS011;46330;50.822;7.126;2022-12-29T07:55:13;1.75;;;0.63;;
9140;SDS011;46330;50.822;7.126;2022-12-29T07:57:42;2.28;;;0.55;;
9140;SDS011;46330;50.822;7.126;2022-12-29T08:00:11;1.38;;;0.60;;
9140;SDS011;46330;50.822;7.126;2022-12-29T08:02:39;1.27;;;0.50;;
9140;SDS011;46330;50.822;7.126;2022-12-29T08:05:07;0.60;;;0.32;;
9140;SDS011;46330;50.822;7.126;2022-12-29T08:07:35;1.80;;;0.60;;
9140;SDS011;46330;50.822;7.126;2022-12-29T08:10:03;5.18;;;0.73;;
9140;SDS011;46330;50.822;7.126;2022-12-29T08:12:32;1.52;;;0.50;;
9140;SDS011;46330;50.822;7.126;2022-12-29T08:15:01;1.58;;;0.45;;
9140;SDS011;46330;50.822;7.126;2022-12-29T08:17:29;1.52;;;0.43;;
9140;SDS011;46330;50.822;7.126;2022-12-29T08:19:57;2.88;;;0.70;;
9140;SDS011;46330;50.822;7.126;2022-12-29T08:22:25;1.65;;;0.43;;
9140;SDS011;46330;50.822;7.126;2022-12-29T08:24:52;3.20;;;0.73;;
9140;SDS011;46330;50.822;7.126;2022-12-29T08:27:21;0.40;;;0.40;;
9140;SDS011;46330;50.822;7.126;2022-12-29T08:29:49;3.17;;;0.70;;
9140;SDS011;46330;50.822;7.126;2022-12-29T08:32:18;3.33;;;0.55;;
9140;SDS011;46330;50.822;7.126;2022-12-29T08:34:46;1.27;;;0.70;;
9140;SDS011;46330;50.822;7.126;2022-12-29T08:37:14;2.38;;;0.57;;
9140;SDS011;46330;50.822;7.126;2022-12-29T08:39:41;2.72;;;0.85;;
9140;SDS011;46330;50.822;7.126;2022-12-29T08:42:09;3.22;;;0.70;;
9140;SDS011;46330;50.822;7.126;2022-12-29T08:44:37;0.95;;;0.60;;
9140;SDS011;46330;50.822;7.126;2022-12-29T08:47:05;3.03;;;0.90;;
9140;SDS011;46330;50.822;7.126;2022-12-29T08:49:35;3.40;;;0.90;;
9140;SDS011;46330;50.822;7.126;2022-12-29T08:52:03;3.00;;;0.63;;
9140;SDS011;46330;50.822;7.126;2022-12-29T08:54:32;2.92;;;0.80;;
9140;SDS011;46330;50.822;7.126;2022-12-29T08:57:00;2.65;;;0.80;;
9140;SDS011;46330;50.822;7.126;2022-12-29T09:02:03;3.85;;;0.75;;
9140;SDS011;46330;50.822;7.126;2022-12-29T09:04:31;2.30;;;0.77;;
9140;SDS011;46330;50.822;7.126;2022-12-29T09:07:00;3.90;;;1.10;;
9140;SDS011;46330;50.822;7.126;2022-12-29T09:09:28;3.40;;;0.85;;
9140;SDS011;46330;50.822;7.126;2022-12-29T09:11:56;2.30;;;0.60;;
9140;SDS011;46330;50.822;7.126;2022-12-29T09:14:24;3.28;;;0.75;;
9140;SDS011;46330;50.822;7.126;2022-12-29T09:16:53;5.47;;;1.10;;
9140;SDS011;46330;50.822;7.126;2022-12-29T09:19:39;4.75;;;1.20;;
9140;SDS011;46330;50.822;7.126;2022-12-29T09:22:08;2.83;;;0.98;;
9140;SDS011;46330;50.822;7.126;2022-12-29T09:24:36;4.32;;;0.98;;
9140;SDS011;46330;50.822;7.126;2022-12-29T09:27:04;6.18;;;1.10;;
9140;SDS011;46330;50.822;7.126;2022-12-29T09:29:32;1.23;;;0.60;;
9140;SDS011;46330;50.822;7.126;2022-12-29T09:31:59;2.55;;;0.90;;
9140;SDS011;46330;50.822;7.126;2022-12-29T09:34:30;6.95;;;0.90;;
9140;SDS011;46330;50.822;7.126;2022-12-29T09:36:58;2.78;;;0.70;;
9140;SDS011;46330;50.822;7.126;2022-12-29T09:39:27;3.15;;;1.02;;
9140;SDS011;46330;50.822;7.126;2022-12-29T09:41:57;5.32;;;1.00;;
9140;SDS011;46330;50.822;7.126;2022-12-29T09:44:31;4.50;;;0.77;;
9140;SDS011;46330;50.822;7.126;2022-12-29T09:47:14;2.63;;;0.80;;
9140;SDS011;46330;50.822;7.126;2022-12-29T09:49:45;3.63;;;0.85;;
9140;SDS011;46330;50.822;7.126;2022-12-29T09:52:17;4.38;;;0.88;;
9140;SDS011;46330;50.822;7.126;2022-12-29T09:54:52;3.85;;;0.80;;
9140;SDS011;46330;50.822;7.126;2022-12-29T09:57:32;4.05;;;0.90;;
9140;SDS011;46330;50.822;7.126;2022-12-29T10:00:06;4.28;;;0.95;;
9140;SDS011;46330;50.822;7.126;2022-12-29T10:02:40;2.55;;;0.55;;
9140;SDS011;46330;50.822;7.126;2022-12-29T10:08:05;3.63;;;0.90;;
9140;SDS011;46330;50.822;7.126;2022-12-29T10:10:46;3.35;;;0.65;;
9140;SDS011;46330;50.822;7.126;2022-12-29T10:13:27;4.05;;;1.00;;
9140;SDS011;46330;50.822;7.126;2022-12-29T10:16:04;2.50;;;0.75;;
9140;SDS011;46330;50.822;7.126;2022-12-29T10:21:44;3.60;;;0.90;;
9140;SDS011;46330;50.822;7.126;2022-12-29T10:24:22;4.35;;;1.13;;
9140;SDS011;46330;50.822;7.126;2022-12-29T10:26:53;3.17;;;0.65;;
9140;SDS011;46330;50.822;7.126;2022-12-29T10:29:25;4.43;;;0.90;;
9140;SDS011;46330;50.822;7.126;2022-12-29T10:32:00;3.50;;;0.90;;
9140;SDS011;46330;50.822;7.126;2022-12-29T10:34:34;4.05;;;1.00;;
9140;SDS011;46330;50.822;7.126;2022-12-29T10:37:05;1.90;;;0.63;;
9140;SDS011;46330;50.822;7.126;2022-12-29T10:39:40;3.25;;;1.05;;
9140;SDS011;46330;50.822;7.126;2022-12-29T10:42:15;4.53;;;1.10;;
9140;SDS011;46330;50.822;7.126;2022-12-29T10:44:53;2.92;;;0.60;;
9140;SDS011;46330;50.822;7.126;2022-12-29T10:47:23;4.88;;;1.10;;
9140;SDS011;46330;50.822;7.126;2022-12-29T10:49:53;4.65;;;0.90;;
9140;SDS011;46330;50.822;7.126;2022-12-29T10:52:21;2.72;;;0.80;;
9140;SDS011;46330;50.822;7.126;2022-12-29T10:54:51;3.50;;;0.85;;
9140;SDS011;46330;50.822;7.126;2022-12-29T10:57:26;4.57;;;1.10;;
9140;SDS011;46330;50.822;7.126;2022-12-29T10:59:58;2.83;;;0.80;;
9140;SDS011;46330;50.822;7.126;2022-12-29T11:02:37;7.80;;;1.00;;
9140;SDS011;46330;50.822;7.126;2022-12-29T11:05:26;5.38;;;1.02;;
9140;SDS011;46330;50.822;7.126;2022-12-29T11:08:04;2.63;;;0.60;;
9140;SDS011;46330;50.822;7.126;2022-12-29T11:10:39;3.15;;;0.95;;
9140;SDS011;46330;50.822;7.126;2022-12-29T11:13:14;4.05;;;1.02;;
9140;SDS011;46330;50.822;7.126;2022-12-29T11:15:44;4.03;;;0.80;;
9140;SDS011;46330;50.822;7.126;2022-12-29T11:18:17;2.13;;;0.88;;
9140;SDS011;46330;50.822;7.126;2022-12-29T11:20:47;3.35;;;0.90;;
9140;SDS011;46330;50.822;7.126;2022-12-29T11:23:24;3.78;;;0.77;;
9140;SDS011;46330;50.822;7.126;2022-12-29T11:26:06;5.32;;;1.10;;
9140;SDS011;46330;50.822;7.126;2022-12-29T11:28:41;5.10;;;0.80;;
9140;SDS011;46330;50.822;7.126;2022-12-29T11:31:12;4.43;;;1.10;;
9140;SDS011;46330;50.822;7.126;2022-12-29T11:33:43;5.95;;;1.17;;
9140;SDS011;46330;50.822;7.126;2022-12-29T11:36:11;3.47;;;0.95;;
9140;SDS011;46330;50.822;7.126;2022-12-29T11:38:46;5.32;;;1.10;;
9140;SDS011;46330;50.822;7.126;2022-12-29T11:41:19;3.35;;;0.98;;
9140;SDS011;46330;50.822;7.126;2022-12-29T11:43:52;5.30;;;1.20;;
9140;SDS011;46330;50.822;7.126;2022-12-29T11:46:22;3.38;;;0.77;;
9140;SDS011;46330;50.822;7.126;2022-12-29T11:48:52;2.60;;;0.70;;
9140;SDS011;46330;50.822;7.126;2022-12-29T11:51:25;7.07;;;1.25;;
9140;SDS011;46330;50.822;7.126;2022-12-29T11:53:56;5.18;;;1.10;;
9140;SDS011;46330;50.822;7.126;2022-12-29T11:56:33;6.63;;;1.30;;
9140;SDS011;46330;50.822;7.126;2022-12-29T12:02:21;3.78;;;0.93;;
9140;SDS011;46330;50.822;7.126;2022-12-29T12:04:55;5.80;;;0.90;;
9140;SDS011;46330;50.822;7.126;2022-12-29T12:07:36;5.85;;;1.23;;
9140;SDS011;46330;50.822;7.126;2022-12-29T12:10:11;5.68;;;1.08;;
9140;SDS011;46330;50.822;7.126;2022-12-29T12:12:45;3.90;;;1.20;;
9140;SDS011;46330;50.822;7.126;2022-12-29T12:15:19;3.53;;;0.90;;
9140;SDS011;46330;50.822;7.126;2022-12-29T12:17:55;4.45;;;1.20;;
9140;SDS011;46330;50.822;7.126;2022-12-29T12:20:32;6.13;;;1.15;;
9140;SDS011;46330;50.822;7.126;2022-12-29T12:23:07;7.50;;;1.30;;
9140;SDS011;46330;50.822;7.126;2022-12-29T12:25:47;2.88;;;1.00;;
9140;SDS011;46330;50.822;7.126;2022-12-29T12:28:26;4.97;;;1.13;;
9140;SDS011;46330;50.822;7.126;2022-12-29T12:31:04;4.00;;;1.00;;
9140;SDS011;46330;50.822;7.126;2022-12-29T12:33:41;4.65;;;0.77;;
9140;SDS011;46330;50.822;7.126;2022-12-29T12:36:22;3.20;;;0.65;;
9140;SDS011;46330;50.822;7.126;2022-12-29T12:39:11;2.58;;;0.82;;
9140;SDS011;46330;50.822;7.126;2022-12-29T12:41:52;5.65;;;1.25;;
9140;SDS011;46330;50.822;7.126;2022-12-29T12:44:35;6.10;;;1.13;;
9140;SDS011;46330;50.822;7.126;2022-12-29T12:47:23;3.15;;;1.05;;
9140;SDS011;46330;50.822;7.126;2022-12-29T12:53:07;5.10;;;1.10;;
9140;SDS011;46330;50.822;7.126;2022-12-29T12:55:52;6.10;;;1.30;;
9140;SDS011;46330;50.822;7.126;2022-12-29T12:58:32;5.47;;;0.95;;
9140;SDS011;46330;50.822;7.126;2022-12-29T13:01:11;4.75;;;0.93;;
9140;SDS011;46330;50.822;7.126;2022-12-29T13:03:53;4.97;;;1.20;;
9140;SDS011;46330;50.822;7.126;2022-12-29T13:06:37;7.03;;;1.10;;
9140;SDS011;46330;50.822;7.126;2022-12-29T13:12:20;5.38;;;1.23;;
9140;SDS011;46330;50.822;7.126;2022-12-29T13:15:01;4.40;;;1.00;;
9140;SDS011;46330;50.822;7.126;2022-12-29T13:17:41;2.78;;;1.20;;
9140;SDS011;46330;50.822;7.126;2022-12-29T13:20:18;5.47;;;1.52;;
9140;SDS011;46330;50.822;7.126;2022-12-29T13:22:52;5.10;;;0.90;;
9140;SDS011;46330;50.822;7.126;2022-12-29T13:25:30;5.43;;;1.20;;
9140;SDS011;46330;50.822;7.126;2022-12-29T13:28:06;4.25;;;1.00;;
9140;SDS011;46330;50.822;7.126;2022-12-29T13:30:43;2.90;;;0.88;;
9140;SDS011;46330;50.822;7.126;2022-12-29T13:33:17;4.38;;;1.13;;
9140;SDS011;46330;50.822;7.126;2022-12-29T13:35:57;3.97;;;1.10;;
9140;SDS011;46330;50.822;7.126;2022-12-29T13:38:30;2.03;;;0.80;;
9140;SDS011;46330;50.822;7.126;2022-12-29T13:41:04;4.45;;;0.90;;
9140;SDS011;46330;50.822;7.126;2022-12-29T13:43:36;4.65;;;1.17;;
9140;SDS011;46330;50.822;7.126;2022-12-29T13:46:09;4.20;;;1.00;;
9140;SDS011;46330;50.822;7.126;2022-12-29T13:48:42;5.28;;;0.85;;
9140;SDS011;46330;50.822;7.126;2022-12-29T13:51:16;6.45;;;1.13;;
9140;SDS011;46330;50.822;7.126;2022-12-29T13:56:45;4.50;;;0.95;;
9140;SDS011;46330;50.822;7.126;2022-12-29T14:01:54;4.80;;;1.10;;
9140;SDS011;46330;50.822;7.126;2022-12-29T14:04:27;7.38;;;1.30;;
9140;SDS011;46330;50.822;7.126;2022-12-29T14:07:01;4.15;;;1.40;;
9140;SDS011;46330;50.822;7.126;2022-12-29T14:09:45;7.25;;;1.00;;
9140;SDS011;46330;50.822;7.126;2022-12-29T14:12:28;4.10;;;1.10;;
9140;SDS011;46330;50.822;7.126;2022-12-29T14:15:03;5.93;;;1.10;;
9140;SDS011;46330;50.822;7.126;2022-12-29T14:17:44;5.95;;;1.02;;
9140;SDS011;46330;50.822;7.126;2022-12-29T14:20:27;4.20;;;1.20;;
9140;SDS011;46330;50.822;7.126;2022-12-29T14:22:57;6.65;;;1.23;;
9140;SDS011;46330;50.822;7.126;2022-12-29T14:28:24;6.78;;;1.45;;
9140;SDS011;46330;50.822;7.126;2022-12-29T14:30:53;3.80;;;1.10;;
9140;SDS011;46330;50.822;7.126;2022-12-29T14:33:23;5.05;;;1.27;;
9140;SDS011;46330;50.822;7.126;2022-12-29T14:35:53;6.88;;;1.30;;
9140;SDS011;46330;50.822;7.126;2022-12-29T14:38:23;6.35;;;1.20;;
9140;SDS011;46330;50.822;7.126;2022-12-29T14:41:15;5.78;;;1.08;;
9140;SDS011;46330;50.822;7.126;2022-12-29T14:43:57;5.28;;;1.27;;
9140;SDS011;46330;50.822;7.126;2022-12-29T14:46:44;4.60;;;1.15;;
9140;SDS011;46330;50.822;7.126;2022-12-29T14:49:17;5.60;;;1.00;;
9140;SDS011;46330;50.822;7.126;2022-12-29T14:51:47;6.97;;;1.30;;
9140;SDS011;46330;50.822;7.126;2022-12-29T14:57:20;4.68;;;1.27;;
9140;SDS011;46330;50.822;7.126;2022-12-29T14:59:52;5.15;;;1.40;;
9140;SDS011;46330;50.822;7.126;2022-12-29T15:02:23;5.63;;;1.50;;
9140;SDS011;46330;50.822;7.126;2022-12-29T15:04:59;7.18;;;1.40;;
9140;SDS011;46330;50.822;7.126;2022-12-29T15:07:29;4.35;;;1.17;;
9140;SDS011;46330;50.822;7.126;2022-12-29T15:10:00;4.32;;;1.08;;
9140;SDS011;46330;50.822;7.126;2022-12-29T15:12:35;6.03;;;1.17;;
9140;SDS011;46330;50.822;7.126;2022-12-29T15:15:16;4.60;;;1.13;;
9140;SDS011;46330;50.822;7.126;2022-12-29T15:17:46;4.88;;;1.33;;
9140;SDS011;46330;50.822;7.126;2022-12-29T15:20:16;4.15;;;1.08;;
9140;SDS011;46330;50.822;7.126;2022-12-29T15:22:50;3.40;;;1.10;;
9140;SDS011;46330;50.822;7.126;2022-12-29T15:25:22;7.47;;;1.75;;
9140;SDS011;46330;50.822;7.126;2022-12-29T15:27:52;8.65;;;1.38;;
9140;SDS011;46330;50.822;7.126;2022-12-29T15:30:23;6.28;;;1.67;;
9140;SDS011;46330;50.822;7.126;2022-12-29T15:32:51;5.50;;;1.23;;
9140;SDS011;46330;50.822;7.126;2022-12-29T15:35:23;8.80;;;1.63;;
9140;SDS011;46330;50.822;7.126;2022-12-29T15:37:53;5.18;;;1.38;;
9140;SDS011;46330;50.822;7.126;2022-12-29T15:40:23;7.13;;;1.20;;
9140;SDS011;46330;50.822;7.126;2022-12-29T15:42:59;5.28;;;1.45;;
9140;SDS011;46330;50.822;7.126;2022-12-29T15:45:43;6.40;;;1.05;;
9140;SDS011;46330;50.822;7.126;2022-12-29T15:48:13;3.25;;;1.00;;
9140;SDS011;46330;50.822;7.126;2022-12-29T15:50:45;7.15;;;1.20;;
9140;SDS011;46330;50.822;7.126;2022-12-29T15:53:17;3.80;;;0.88;;
9140;SDS011;46330;50.822;7.126;2022-12-29T15:55:52;5.47;;;1.23;;
9140;SDS011;46330;50.822;7.126;2022-12-29T15:58:28;4.25;;;1.10;;
9140;SDS011;46330;50.822;7.126;2022-12-29T16:00:58;6.28;;;1.13;;
9140;SDS011;46330;50.822;7.126;2022-12-29T16:03:29;4.38;;;1.10;;
9140;SDS011;46330;50.822;7.126;2022-12-29T16:06:06;2.92;;;1.00;;
9140;SDS011;46330;50.822;7.126;2022-12-29T16:08:37;3.85;;;1.02;;
9140;SDS011;46330;50.822;7.126;2022-12-29T16:11:16;3.92;;;1.05;;
9140;SDS011;46330;50.822;7.126;2022-12-29T16:13:49;6.47;;;1.20;;
9140;SDS011;46330;50.822;7.126;2022-12-29T16:16:19;4.65;;;1.30;;
9140;SDS011;46330;50.822;7.126;2022-12-29T16:18:49;6.05;;;1.65;;
9140;SDS011;46330;50.822;7.126;2022-12-29T16:21:25;4.45;;;1.60;;
9140;SDS011;46330;50.822;7.126;2022-12-29T16:23:56;7.57;;;1.83;;